createdAt,value
2023-04-29T00:01:06.303Z,5.50
2023-04-29T00:03:33.321Z,5.03
2023-04-29T00:06:01.232Z,4.85
2023-04-29T00:08:28.290Z,5.07
2023-04-29T00:10:55.522Z,5.97
2023-04-29T00:13:22.327Z,7.18
2023-04-29T00:15:49.230Z,5.10
2023-04-29T00:18:16.065Z,6.10
2023-04-29T00:20:43.407Z,4.47
2023-04-29T00:23:10.177Z,5.75
2023-04-29T00:25:38.312Z,4.97
2023-04-29T00:28:07.853Z,5.90
2023-04-29T00:30:34.844Z,5.70
2023-04-29T00:33:01.776Z,6.70
2023-04-29T00:35:29.466Z,7.18
2023-04-29T00:37:56.138Z,6.95
2023-04-29T00:40:22.831Z,7.18
2023-04-29T00:42:49.810Z,5.90
2023-04-29T00:45:16.848Z,6.00
2023-04-29T00:47:44.118Z,6.85
2023-04-29T00:50:11.042Z,6.53
2023-04-29T00:52:39.334Z,5.65
2023-04-29T00:55:09.236Z,5.57
2023-04-29T00:57:35.985Z,6.93
2023-04-29T01:00:03.975Z,8.70
2023-04-29T01:02:30.872Z,5.53
2023-04-29T01:04:57.704Z,6.60
2023-04-29T01:07:37.753Z,6.60
2023-04-29T01:10:15.423Z,6.53
2023-04-29T01:12:59.812Z,7.50
2023-04-29T01:15:30.352Z,5.97
2023-04-29T01:18:32.588Z,6.38
2023-04-29T01:21:00.148Z,8.35
2023-04-29T01:23:28.127Z,6.32
2023-04-29T01:25:56.320Z,7.22
2023-04-29T01:29:00.124Z,7.90
2023-04-29T01:31:33.998Z,8.00
2023-04-29T01:34:20.019Z,8.88
2023-04-29T01:37:05.090Z,7.43
2023-04-29T01:39:46.592Z,9.65
2023-04-29T01:42:19.968Z,8.50
2023-04-29T01:44:49.475Z,7.32
2023-04-29T01:47:20.269Z,8.75
2023-04-29T01:49:50.822Z,8.80
2023-04-29T01:52:18.006Z,8.05
2023-04-29T01:54:52.357Z,7.55
2023-04-29T01:57:19.526Z,8.95
2023-04-29T02:00:11.823Z,8.70
2023-04-29T02:02:45.826Z,10.15
2023-04-29T02:05:34.289Z,8.10
2023-04-29T02:08:02.129Z,7.57
2023-04-29T02:10:30.971Z,6.95
2023-04-29T02:13:20.538Z,8.60
2023-04-29T02:15:53.011Z,9.70
2023-04-29T02:18:19.629Z,10.68
2023-04-29T02:20:50.710Z,8.50
2023-04-29T02:25:44.113Z,7.97
2023-04-29T02:28:10.847Z,7.15
2023-04-29T02:33:08.776Z,8.73
2023-04-29T02:35:35.921Z,10.20
2023-04-29T02:38:02.710Z,7.13
2023-04-29T02:40:29.408Z,8.13
2023-04-29T02:42:56.094Z,8.18
2023-04-29T02:45:23.426Z,6.65
2023-04-29T02:47:50.395Z,7.47
2023-04-29T02:50:17.183Z,10.75
2023-04-29T02:52:44.249Z,7.63
2023-04-29T02:55:10.911Z,8.40
2023-04-29T02:57:38.006Z,7.43
2023-04-29T03:00:05.319Z,9.77
2023-04-29T03:02:32.333Z,8.43
2023-04-29T03:04:59.806Z,6.65
2023-04-29T03:07:27.956Z,8.55
2023-04-29T03:09:55.536Z,8.63
2023-04-29T03:12:22.313Z,6.80
2023-04-29T03:14:50.130Z,7.70
2023-04-29T03:17:16.974Z,9.07
2023-04-29T03:19:44.076Z,8.65
2023-04-29T03:22:13.695Z,9.45
2023-04-29T03:24:42.754Z,8.88
2023-04-29T03:27:09.782Z,7.78
2023-04-29T03:29:36.721Z,7.00
2023-04-29T03:32:03.744Z,8.35
2023-04-29T03:34:30.485Z,7.28
2023-04-29T03:37:16.625Z,8.10
2023-04-29T03:39:51.551Z,6.53
2023-04-29T03:42:18.719Z,8.73
2023-04-29T03:44:45.558Z,8.30
2023-04-29T03:47:13.889Z,8.20
2023-04-29T03:49:40.581Z,8.82
2023-04-29T03:52:07.733Z,8.43
2023-04-29T03:54:34.382Z,9.18
2023-04-29T03:57:02.283Z,8.10
2023-04-29T03:59:28.979Z,8.27
2023-04-29T04:01:56.019Z,7.45
2023-04-29T04:04:23.040Z,7.45
2023-04-29T04:06:51.961Z,8.02
2023-04-29T04:09:21.333Z,9.18
2023-04-29T04:11:48.070Z,8.00
2023-04-29T04:14:15.106Z,8.90
2023-04-29T04:16:41.872Z,10.95
2023-04-29T04:19:08.846Z,9.88
2023-04-29T04:21:39.010Z,9.07
2023-04-29T04:26:35.370Z,7.90
2023-04-29T04:29:10.824Z,7.05
2023-04-29T04:31:49.239Z,9.40
2023-04-29T04:34:17.786Z,8.20
2023-04-29T04:36:47.597Z,9.52
2023-04-29T04:39:14.257Z,8.48
2023-04-29T04:41:41.052Z,9.60
2023-04-29T04:44:07.942Z,10.23
2023-04-29T04:46:42.509Z,9.73
2023-04-29T04:49:14.428Z,8.90
2023-04-29T04:51:48.825Z,9.15
2023-04-29T04:54:15.673Z,9.70
2023-04-29T04:56:42.522Z,10.23
2023-04-29T04:59:09.632Z,9.18
2023-04-29T05:01:38.466Z,10.80
2023-04-29T05:04:05.461Z,9.23
2023-04-29T05:06:32.223Z,10.43
2023-04-29T05:08:59.598Z,11.02
2023-04-29T05:11:26.333Z,10.40
2023-04-29T05:14:08.679Z,10.50
2023-04-29T05:16:35.518Z,10.45
2023-04-29T05:19:02.397Z,10.32
2023-04-29T05:21:32.667Z,9.77
2023-04-29T05:24:01.478Z,9.82
2023-04-29T05:26:28.537Z,9.80
2023-04-29T05:28:59.863Z,10.60
2023-04-29T05:31:28.802Z,9.98
2023-04-29T05:33:57.113Z,10.13
2023-04-29T05:36:25.091Z,9.73
2023-04-29T05:38:51.821Z,11.45
2023-04-29T05:41:18.758Z,9.50
2023-04-29T05:43:55.904Z,9.48
2023-04-29T05:46:23.335Z,11.70
2023-04-29T05:48:50.643Z,11.15
2023-04-29T05:51:17.911Z,10.27
2023-04-29T05:53:44.662Z,11.60
2023-04-29T05:56:11.638Z,10.45
2023-04-29T05:58:39.777Z,10.18
2023-04-29T06:01:07.766Z,10.27
2023-04-29T06:03:35.176Z,10.48
2023-04-29T06:06:31.303Z,11.30
2023-04-29T06:09:19.949Z,10.35
2023-04-29T06:11:54.716Z,10.82
2023-04-29T06:14:21.710Z,10.43
2023-04-29T06:16:49.528Z,10.93
2023-04-29T06:19:16.384Z,10.43
2023-04-29T06:21:43.068Z,10.23
2023-04-29T06:24:09.643Z,11.02
2023-04-29T06:26:36.681Z,11.05
2023-04-29T06:29:03.637Z,10.57
2023-04-29T06:31:30.418Z,9.50
2023-04-29T06:34:01.042Z,10.18
2023-04-29T06:36:28.161Z,11.18
2023-04-29T06:39:18.241Z,11.52
2023-04-29T06:42:15.062Z,11.63
2023-04-29T06:47:58.601Z,10.05
2023-04-29T06:50:52.595Z,9.63
2023-04-29T06:53:19.856Z,11.55
2023-04-29T06:55:46.686Z,9.35
2023-04-29T06:58:14.800Z,11.00
2023-04-29T07:00:45.031Z,9.63
2023-04-29T07:03:12.293Z,11.77
2023-04-29T07:05:40.882Z,10.27
2023-04-29T07:08:10.321Z,9.00
2023-04-29T07:10:37.118Z,9.75
2023-04-29T07:13:04.400Z,9.18
2023-04-29T07:15:34.662Z,10.00
2023-04-29T07:18:01.409Z,10.63
2023-04-29T07:20:28.289Z,9.10
2023-04-29T07:22:55.161Z,9.90
2023-04-29T07:25:21.827Z,10.35
2023-04-29T07:27:48.714Z,9.90
2023-04-29T07:30:15.442Z,9.32
2023-04-29T07:32:42.189Z,9.77
2023-04-29T07:35:09.090Z,8.98
2023-04-29T07:37:36.478Z,9.00
2023-04-29T07:40:04.462Z,9.05
2023-04-29T07:42:31.289Z,8.15
2023-04-29T07:44:59.159Z,7.78
2023-04-29T07:47:26.169Z,8.02
2023-04-29T07:49:52.866Z,10.43
2023-04-29T07:52:19.568Z,10.27
2023-04-29T07:54:49.675Z,9.23
2023-04-29T07:57:16.570Z,8.63
2023-04-29T07:59:43.390Z,8.63
2023-04-29T08:02:10.153Z,8.40
2023-04-29T08:04:41.850Z,8.65
2023-04-29T08:07:11.065Z,8.55
2023-04-29T08:09:37.925Z,8.65
2023-04-29T08:12:05.522Z,8.00
2023-04-29T08:14:32.174Z,7.72
2023-04-29T08:17:00.225Z,7.68
2023-04-29T08:19:26.919Z,7.30
2023-04-29T08:21:53.573Z,8.15
2023-04-29T08:24:22.289Z,8.38
2023-04-29T08:26:49.213Z,7.68
2023-04-29T08:29:16.265Z,8.23
2023-04-29T08:31:43.113Z,7.75
2023-04-29T08:34:09.893Z,7.65
2023-04-29T08:36:38.639Z,8.63
2023-04-29T08:39:05.345Z,8.30
2023-04-29T08:41:33.392Z,7.70
2023-04-29T08:44:01.097Z,7.68
2023-04-29T08:46:28.680Z,8.45
2023-04-29T08:48:58.229Z,6.68
2023-04-29T08:51:24.970Z,7.18
2023-04-29T08:53:51.801Z,7.15
2023-04-29T08:56:22.165Z,7.10
2023-04-29T08:58:54.771Z,7.40
2023-04-29T09:01:23.333Z,6.95
2023-04-29T09:04:06.024Z,9.73
2023-04-29T09:06:33.753Z,7.07
2023-04-29T09:09:02.090Z,6.63
2023-04-29T09:11:30.215Z,6.90
2023-04-29T09:14:04.379Z,8.25
2023-04-29T09:16:31.263Z,6.53
2023-04-29T09:18:58.269Z,6.78
2023-04-29T09:21:27.362Z,7.40
2023-04-29T09:23:58.806Z,7.05
2023-04-29T09:26:26.783Z,7.05
2023-04-29T09:29:11.811Z,6.35
2023-04-29T09:31:42.241Z,6.50
2023-04-29T09:34:09.897Z,7.03
2023-04-29T09:36:42.457Z,6.55
2023-04-29T09:39:13.980Z,6.00
2023-04-29T09:41:52.802Z,6.03
2023-04-29T09:44:24.443Z,7.60
2023-04-29T09:47:00.019Z,5.88
2023-04-29T09:49:29.091Z,6.68
2023-04-29T09:52:00.737Z,6.15
2023-04-29T09:54:29.259Z,5.15
2023-04-29T09:56:58.125Z,6.40
2023-04-29T09:59:25.441Z,5.43
2023-04-29T10:01:54.183Z,7.13
2023-04-29T10:04:22.890Z,5.60
2023-04-29T10:06:52.684Z,5.30
2023-04-29T10:09:20.526Z,5.22
2023-04-29T10:11:52.773Z,5.70
2023-04-29T10:14:21.826Z,6.80
2023-04-29T10:16:54.619Z,5.22
2023-04-29T10:19:35.528Z,6.43
2023-04-29T10:22:08.963Z,5.60
2023-04-29T10:24:40.106Z,5.30
2023-04-29T10:27:13.364Z,5.13
2023-04-29T10:29:41.798Z,5.70
2023-04-29T10:32:12.641Z,5.78
2023-04-29T10:34:42.179Z,5.03
2023-04-29T10:37:12.822Z,5.47
2023-04-29T10:39:45.270Z,5.72
2023-04-29T10:42:48.663Z,5.55
2023-04-29T10:45:27.339Z,5.43
2023-04-29T10:48:05.890Z,4.93
2023-04-29T10:50:34.967Z,6.33
2023-04-29T10:53:05.582Z,5.07
2023-04-29T10:55:36.812Z,5.95
2023-04-29T10:58:07.441Z,5.72
2023-04-29T11:00:38.668Z,4.95
2023-04-29T11:03:06.512Z,5.13
2023-04-29T11:05:35.186Z,4.25
2023-04-29T11:08:24.376Z,4.10
2023-04-29T11:13:29.674Z,4.20
2023-04-29T11:16:12.352Z,4.82
2023-04-29T11:19:08.498Z,4.68
2023-04-29T11:21:36.624Z,4.47
2023-04-29T11:24:06.399Z,4.38
2023-04-29T11:26:37.131Z,4.55
2023-04-29T11:29:05.720Z,5.43
2023-04-29T11:31:33.625Z,4.33
2023-04-29T11:34:00.956Z,4.47
2023-04-29T11:36:28.468Z,5.07
2023-04-29T11:38:56.035Z,4.15
2023-04-29T11:41:23.367Z,4.55
2023-04-29T11:44:00.363Z,4.28
2023-04-29T11:46:31.156Z,5.25
2023-04-29T11:49:00.002Z,4.53
2023-04-29T11:51:27.052Z,4.63
2023-04-29T11:53:54.169Z,4.45
2023-04-29T11:56:25.563Z,4.63
2023-04-29T11:59:01.305Z,4.72
2023-04-29T12:01:28.082Z,4.50
2023-04-29T12:04:02.601Z,4.53
2023-04-29T12:06:30.690Z,3.58
2023-04-29T12:09:00.385Z,3.75
2023-04-29T12:11:28.235Z,3.70
2023-04-29T12:13:55.392Z,4.25
2023-04-29T12:16:24.203Z,3.90
2023-04-29T12:18:53.209Z,4.47
2023-04-29T12:21:19.917Z,5.13
2023-04-29T12:23:47.407Z,3.90
2023-04-29T12:26:14.566Z,3.83
2023-04-29T12:28:42.188Z,3.28
2023-04-29T12:31:11.481Z,3.72
2023-04-29T12:36:05.035Z,3.50
2023-04-29T12:38:32.193Z,4.03
2023-04-29T12:41:00.600Z,3.38
2023-04-29T12:43:28.988Z,4.27
2023-04-29T12:46:03.853Z,3.33
2023-04-29T12:48:33.438Z,3.53
2023-04-29T12:51:01.884Z,3.90
2023-04-29T12:53:32.187Z,3.63
2023-04-29T12:55:59.043Z,4.80
2023-04-29T12:58:29.949Z,4.20
2023-04-29T13:00:57.853Z,3.55
2023-04-29T13:03:25.136Z,3.58
2023-04-29T13:05:53.828Z,3.92
2023-04-29T13:08:21.172Z,3.83
2023-04-29T13:10:47.960Z,5.25
2023-04-29T13:13:14.898Z,3.47
2023-04-29T13:15:41.690Z,3.50
2023-04-29T13:18:08.609Z,3.92
2023-04-29T13:20:41.016Z,3.47
2023-04-29T13:23:09.094Z,4.07
2023-04-29T13:25:36.103Z,3.85
2023-04-29T13:28:02.944Z,4.45
2023-04-29T13:30:29.675Z,3.70
2023-04-29T13:32:59.854Z,4.53
2023-04-29T13:35:29.781Z,3.63
2023-04-29T13:37:57.257Z,3.80
2023-04-29T13:40:27.819Z,3.45
2023-04-29T13:43:05.590Z,4.03
2023-04-29T13:45:39.779Z,3.53
2023-04-29T13:48:26.112Z,4.95
2023-04-29T13:54:01.785Z,4.72
2023-04-29T13:59:33.539Z,4.13
2023-04-29T14:04:00.501Z,4.13
2023-04-29T14:06:28.379Z,3.55
2023-04-29T14:08:55.359Z,3.58
2023-04-29T14:11:22.062Z,4.68
2023-04-29T14:13:49.105Z,3.85
2023-04-29T14:16:16.901Z,4.00
2023-04-29T14:18:43.596Z,3.92
2023-04-29T14:21:11.439Z,3.60
2023-04-29T14:23:38.436Z,3.97
2023-04-29T14:26:23.201Z,3.35
2023-04-29T14:28:57.425Z,4.00
2023-04-29T14:31:31.324Z,4.68
2023-04-29T14:33:58.557Z,4.10
2023-04-29T14:36:26.627Z,3.85
2023-04-29T14:38:53.638Z,5.13
2023-04-29T14:41:21.897Z,3.22
2023-04-29T14:43:49.087Z,3.80
2023-04-29T14:46:16.750Z,3.65
2023-04-29T14:48:43.832Z,3.97
2023-04-29T14:51:10.799Z,3.85
2023-04-29T14:53:37.497Z,3.85
2023-04-29T14:56:04.372Z,3.70
2023-04-29T14:58:31.284Z,4.22
2023-04-29T15:00:58.182Z,3.90
2023-04-29T15:03:25.187Z,3.08
2023-04-29T15:05:52.759Z,3.47
2023-04-29T15:08:19.616Z,3.78
2023-04-29T15:10:47.634Z,3.28
2023-04-29T15:13:14.639Z,3.97
2023-04-29T15:15:41.461Z,3.22
2023-04-29T15:18:09.081Z,3.00
2023-04-29T15:20:37.247Z,3.65
2023-04-29T15:23:04.747Z,3.20
2023-04-29T15:25:33.673Z,3.45
2023-04-29T15:28:01.702Z,4.13
2023-04-29T15:30:28.511Z,4.47
2023-04-29T15:32:55.470Z,4.25
2023-04-29T15:35:22.453Z,4.07
2023-04-29T15:37:49.559Z,3.50
2023-04-29T15:40:17.557Z,3.20
2023-04-29T15:42:44.390Z,3.67
2023-04-29T15:45:11.461Z,3.33
2023-04-29T15:47:38.543Z,4.30
2023-04-29T15:50:06.214Z,3.58
2023-04-29T15:52:33.253Z,3.95
2023-04-29T15:55:00.338Z,3.63
2023-04-29T15:57:27.256Z,5.07
2023-04-29T15:59:54.299Z,4.00
2023-04-29T16:02:21.673Z,3.92
2023-04-29T16:04:48.538Z,3.55
2023-04-29T16:07:15.433Z,3.63
2023-04-29T16:09:42.489Z,3.25
2023-04-29T16:12:11.568Z,3.30
2023-04-29T16:14:38.432Z,3.53
2023-04-29T16:17:06.011Z,3.42
2023-04-29T16:19:35.246Z,3.47
2023-04-29T16:22:03.738Z,4.00
2023-04-29T16:24:30.459Z,3.50
2023-04-29T16:26:57.347Z,3.88
2023-04-29T16:29:24.319Z,3.88
2023-04-29T16:31:53.765Z,3.20
2023-04-29T16:34:20.586Z,3.58
2023-04-29T16:36:47.359Z,3.35
2023-04-29T16:39:14.484Z,3.55
2023-04-29T16:41:41.367Z,3.40
2023-04-29T16:44:08.562Z,3.88
2023-04-29T16:46:35.528Z,3.40
2023-04-29T16:49:02.969Z,3.58
2023-04-29T16:51:29.798Z,3.55
2023-04-29T16:53:56.771Z,3.40
2023-04-29T16:56:23.474Z,3.35
2023-04-29T16:58:50.213Z,3.60
2023-04-29T17:01:19.621Z,3.03
2023-04-29T17:03:49.971Z,3.30
2023-04-29T17:06:17.030Z,3.33
2023-04-29T17:08:44.666Z,2.97
2023-04-29T17:11:11.454Z,3.38
2023-04-29T17:13:38.127Z,5.00
2023-04-29T17:16:05.604Z,3.95
2023-04-29T17:18:32.466Z,3.47
2023-04-29T17:20:59.531Z,17.45
2023-04-29T17:23:26.291Z,3.47
2023-04-29T17:25:54.638Z,3.30
2023-04-29T17:28:21.353Z,7.07
2023-04-29T17:30:47.902Z,3.30
2023-04-29T17:33:14.567Z,4.05
2023-04-29T17:35:41.497Z,4.32
2023-04-29T17:38:08.459Z,4.60
2023-04-29T17:40:35.124Z,3.65
2023-04-29T17:43:02.073Z,3.03
2023-04-29T17:45:29.110Z,4.18
2023-04-29T17:47:56.120Z,2.88
2023-04-29T17:50:22.814Z,3.70
2023-04-29T17:52:49.641Z,3.33
2023-04-29T17:55:16.293Z,3.15
2023-04-29T17:57:43.006Z,3.55
2023-04-29T18:00:11.183Z,3.42
2023-04-29T18:02:37.961Z,3.55
2023-04-29T18:05:04.977Z,3.92
2023-04-29T18:07:31.707Z,3.45
2023-04-29T18:09:58.558Z,5.45
2023-04-29T18:12:25.621Z,3.17
2023-04-29T18:14:52.312Z,3.10
2023-04-29T18:17:19.878Z,3.25
2023-04-29T18:19:48.751Z,3.22
2023-04-29T18:22:16.042Z,3.92
2023-04-29T18:24:43.333Z,3.10
2023-04-29T18:27:10.468Z,3.53
2023-04-29T18:29:37.377Z,3.78
2023-04-29T18:32:06.450Z,3.00
2023-04-29T18:34:34.698Z,3.17
2023-04-29T18:37:01.651Z,3.33
2023-04-29T18:39:28.448Z,4.25
2023-04-29T18:41:56.020Z,4.03
2023-04-29T18:44:22.723Z,2.95
2023-04-29T18:46:49.850Z,3.13
2023-04-29T18:49:17.971Z,3.17
2023-04-29T18:51:48.160Z,3.22
2023-04-29T18:54:16.681Z,3.05
2023-04-29T18:56:47.361Z,3.03
2023-04-29T18:59:20.381Z,4.00
2023-04-29T19:01:48.421Z,2.80
2023-04-29T19:04:15.803Z,2.65
2023-04-29T19:06:43.086Z,4.22
2023-04-29T19:09:11.419Z,3.28
2023-04-29T19:11:38.424Z,2.75
2023-04-29T19:14:06.013Z,3.13
2023-04-29T19:16:34.831Z,2.53
2023-04-29T19:19:04.149Z,2.90
2023-04-29T19:21:33.038Z,3.55
2023-04-29T19:23:59.994Z,3.00
2023-04-29T19:26:26.906Z,4.15
2023-04-29T19:28:54.370Z,3.45
2023-04-29T19:31:21.504Z,3.30
2023-04-29T19:33:48.271Z,3.67
2023-04-29T19:36:15.068Z,3.83
2023-04-29T19:38:41.747Z,3.60
2023-04-29T19:41:08.705Z,3.38
2023-04-29T19:43:35.757Z,3.03
2023-04-29T19:46:02.429Z,2.80
2023-04-29T19:48:29.327Z,2.72
2023-04-29T19:50:59.558Z,4.47
2023-04-29T19:53:26.979Z,2.65
2023-04-29T19:55:54.028Z,3.17
2023-04-29T19:58:20.712Z,2.90
2023-04-29T20:00:47.493Z,3.03
2023-04-29T20:03:14.126Z,3.25
2023-04-29T20:05:41.483Z,4.55
2023-04-29T20:08:08.301Z,3.53
2023-04-29T20:10:35.077Z,2.83
2023-04-29T20:13:02.009Z,2.80
2023-04-29T20:15:28.677Z,5.43
2023-04-29T20:17:56.079Z,5.03
2023-04-29T20:20:24.310Z,5.07
2023-04-29T20:22:51.057Z,2.85
2023-04-29T20:25:17.958Z,2.90
2023-04-29T20:27:44.734Z,5.78
2023-04-29T20:30:11.760Z,3.63
2023-04-29T20:32:38.868Z,3.60
2023-04-29T20:35:05.960Z,8.40
2023-04-29T20:37:32.624Z,5.93
2023-04-29T20:39:59.682Z,5.47
2023-04-29T20:42:27.052Z,6.20
2023-04-29T20:44:53.868Z,3.95
2023-04-29T20:47:21.358Z,5.65
2023-04-29T20:49:49.489Z,5.57
2023-04-29T20:52:16.475Z,4.82
2023-04-29T20:54:43.359Z,5.53
2023-04-29T20:57:10.333Z,6.32
2023-04-29T20:59:37.622Z,4.35
2023-04-29T21:02:04.776Z,4.40
2023-04-29T21:04:31.553Z,5.05
2023-04-29T21:06:58.245Z,4.38
2023-04-29T21:09:24.951Z,4.30
2023-04-29T21:11:51.754Z,6.03
2023-04-29T21:14:19.023Z,5.65
2023-04-29T21:16:46.052Z,6.40
2023-04-29T21:19:12.767Z,4.75
2023-04-29T21:21:39.453Z,4.30
2023-04-29T21:24:06.167Z,5.03
2023-04-29T21:26:32.944Z,5.57
2023-04-29T21:28:59.684Z,6.22
2023-04-29T21:31:26.517Z,4.55
2023-04-29T21:33:53.421Z,5.60
2023-04-29T21:36:20.223Z,5.00
2023-04-29T21:38:47.201Z,4.50
2023-04-29T21:41:26.524Z,3.33
2023-04-29T21:44:00.964Z,4.30
2023-04-29T21:46:28.882Z,3.80
2023-04-29T21:48:57.670Z,3.97
2023-04-29T21:51:24.365Z,5.20
2023-04-29T21:53:51.813Z,5.13
2023-04-29T21:56:19.406Z,4.97
2023-04-29T21:58:46.222Z,4.15
2023-04-29T22:01:26.690Z,4.50
2023-04-29T22:03:57.381Z,4.00
2023-04-29T22:06:24.860Z,4.13
2023-04-29T22:08:51.544Z,4.82
2023-04-29T22:11:19.702Z,3.75
2023-04-29T22:13:46.287Z,3.03
2023-04-29T22:16:13.190Z,5.13
2023-04-29T22:18:39.899Z,5.72
2023-04-29T22:21:07.503Z,3.42
2023-04-29T22:23:34.174Z,3.25
2023-04-29T22:26:01.030Z,3.65
2023-04-29T22:28:27.881Z,4.80
2023-04-29T22:30:54.604Z,4.22
2023-04-29T22:33:21.449Z,3.88
2023-04-29T22:35:48.096Z,5.30
2023-04-29T22:38:15.039Z,4.45
2023-04-29T22:40:41.605Z,3.80
2023-04-29T22:43:08.253Z,3.42
2023-04-29T22:45:34.866Z,3.60
2023-04-29T22:48:01.574Z,4.93
2023-04-29T22:50:28.341Z,4.68
2023-04-29T22:52:55.047Z,4.25
2023-04-29T22:55:21.790Z,5.82
2023-04-29T22:57:53.380Z,3.92
2023-04-29T23:00:20.291Z,5.40
2023-04-29T23:02:47.295Z,3.28
2023-04-29T23:05:14.062Z,4.57
2023-04-29T23:07:41.216Z,4.13
2023-04-29T23:10:08.242Z,3.92
2023-04-29T23:12:35.010Z,4.30
2023-04-29T23:15:01.866Z,4.15
2023-04-29T23:17:28.704Z,4.25
2023-04-29T23:19:55.853Z,4.28
2023-04-29T23:22:22.717Z,3.63
2023-04-29T23:24:49.466Z,3.30
2023-04-29T23:27:16.086Z,4.22
2023-04-29T23:29:43.159Z,4.80
2023-04-29T23:32:09.923Z,5.93
2023-04-29T23:34:36.563Z,4.45
2023-04-29T23:37:03.356Z,4.45
2023-04-29T23:39:30.037Z,4.65
2023-04-29T23:41:56.746Z,3.55
2023-04-29T23:44:25.224Z,3.35
2023-04-29T23:46:52.151Z,3.53
2023-04-29T23:49:18.981Z,5.63
2023-04-29T23:51:45.893Z,4.22
2023-04-29T23:54:12.509Z,4.47
2023-04-29T23:56:39.226Z,3.72
2023-04-29T23:59:05.880Z,4.50
